createdAt,value
2018-06-11T00:00:28.336Z,938.41
2018-06-11T00:01:36.435Z,938.35
2018-06-11T00:02:44.457Z,938.31
2018-06-11T00:03:52.538Z,938.34
2018-06-11T00:05:00.704Z,938.32
2018-06-11T00:06:08.660Z,938.34
2018-06-11T00:07:16.723Z,938.36
2018-06-11T00:08:24.817Z,938.36
2018-06-11T00:09:32.867Z,938.34
2018-06-11T00:10:41.049Z,938.31
2018-06-11T00:11:48.997Z,938.32
2018-06-11T00:12:57.067Z,938.33
2018-06-11T00:14:05.102Z,938.28
2018-06-11T00:15:13.195Z,938.29
2018-06-11T00:16:21.311Z,938.24
2018-06-11T00:17:29.342Z,938.24
2018-06-11T00:18:37.395Z,938.26
2018-06-11T00:19:45.468Z,938.28
2018-06-11T00:20:53.538Z,938.30
2018-06-11T00:22:01.651Z,938.27
2018-06-11T00:23:09.711Z,938.27
2018-06-11T00:24:17.848Z,938.26
2018-06-11T00:25:25.806Z,938.25
2018-06-11T00:26:33.880Z,938.22
2018-06-11T00:27:41.989Z,938.22
2018-06-11T00:28:50.001Z,938.20
2018-06-11T00:29:58.075Z,938.15
2018-06-11T00:31:06.140Z,938.16
2018-06-11T00:32:14.254Z,938.15
2018-06-11T00:33:22.265Z,938.15
2018-06-11T00:34:30.335Z,938.11
2018-06-11T00:35:38.401Z,938.12
2018-06-11T00:36:46.482Z,938.12
2018-06-11T00:37:54.631Z,938.09
2018-06-11T00:39:02.610Z,938.14
2018-06-11T00:40:10.785Z,938.09
2018-06-11T00:41:18.739Z,938.07
2018-06-11T00:42:26.796Z,938.05
2018-06-11T00:43:34.912Z,938.07
2018-06-11T00:44:42.929Z,938.06
2018-06-11T00:45:51.009Z,938.05
2018-06-11T00:46:59.064Z,938.05
2018-06-11T00:48:07.133Z,938.02
2018-06-11T00:49:15.294Z,938.06
2018-06-11T00:50:23.279Z,938.03
2018-06-11T00:51:31.332Z,938.04
2018-06-11T00:52:39.400Z,938.04
2018-06-11T00:53:47.482Z,938.04
2018-06-11T00:54:55.654Z,938.08
2018-06-11T00:56:03.664Z,938.05
2018-06-11T00:57:11.674Z,938.08
2018-06-11T00:58:19.729Z,938.02
2018-06-11T00:59:27.797Z,938.00
2018-06-11T01:00:35.969Z,937.99
2018-06-11T01:01:43.932Z,937.99
2018-06-11T01:02:52.002Z,937.98
2018-06-11T01:04:00.061Z,937.98
2018-06-11T01:05:08.134Z,938.03
2018-06-11T01:06:16.310Z,938.00
2018-06-11T01:07:24.292Z,937.97
2018-06-11T01:08:32.335Z,937.95
2018-06-11T01:09:40.398Z,937.92
2018-06-11T01:10:48.464Z,937.91
2018-06-11T01:11:56.645Z,937.91
2018-06-11T01:13:04.566Z,937.92
2018-06-11T01:14:12.666Z,937.94
2018-06-11T01:15:20.738Z,937.97
2018-06-11T01:16:28.797Z,937.93
2018-06-11T01:17:36.916Z,937.93
2018-06-11T01:18:44.915Z,937.92
2018-06-11T01:19:53.010Z,937.90
2018-06-11T01:21:01.069Z,937.89
2018-06-11T01:22:09.248Z,937.90
2018-06-11T01:23:17.241Z,937.90
2018-06-11T01:24:25.244Z,937.96
2018-06-11T01:25:33.329Z,937.93
2018-06-11T01:26:41.388Z,937.92
2018-06-11T01:27:49.578Z,937.89
2018-06-11T01:28:57.526Z,937.88
2018-06-11T01:30:05.578Z,937.87
2018-06-11T01:31:13.660Z,937.86
2018-06-11T01:32:21.718Z,937.85
2018-06-11T01:33:29.909Z,937.82
2018-06-11T01:34:37.871Z,937.84
2018-06-11T01:35:45.945Z,937.83
2018-06-11T01:36:53.998Z,937.83
2018-06-11T01:38:02.068Z,937.78
2018-06-11T01:39:10.253Z,937.74
2018-06-11T01:40:18.230Z,937.71
2018-06-11T01:41:26.301Z,937.69
2018-06-11T01:42:34.471Z,937.68
2018-06-11T01:43:42.550Z,937.65
2018-06-11T01:44:50.620Z,937.65
2018-06-11T01:45:58.569Z,937.58
2018-06-11T01:47:06.662Z,937.59
2018-06-11T01:48:14.687Z,937.56
2018-06-11T01:49:22.776Z,937.58
2018-06-11T01:50:30.968Z,937.55
2018-06-11T01:51:38.923Z,937.52
2018-06-11T01:52:46.978Z,937.50
2018-06-11T01:53:55.025Z,937.50
2018-06-11T01:55:03.123Z,937.49
2018-06-11T01:56:11.296Z,937.49
2018-06-11T01:57:19.247Z,937.51
2018-06-11T01:58:27.425Z,937.47
2018-06-11T01:59:35.392Z,937.48
2018-06-11T02:00:43.465Z,937.43
2018-06-11T02:01:51.573Z,937.47
2018-06-11T02:02:59.590Z,937.46
2018-06-11T02:04:07.659Z,937.44
2018-06-11T02:05:15.733Z,937.46
2018-06-11T02:06:23.790Z,937.43
2018-06-11T02:07:31.901Z,937.44
2018-06-11T02:08:39.927Z,937.42
2018-06-11T02:09:48.007Z,937.41
2018-06-11T02:10:56.071Z,937.38
2018-06-11T02:12:04.140Z,937.34
2018-06-11T02:13:12.201Z,937.35
2018-06-11T02:14:20.383Z,937.35
2018-06-11T02:15:28.335Z,937.31
2018-06-11T02:16:36.409Z,937.35
2018-06-11T02:17:44.504Z,937.32
2018-06-11T02:18:52.539Z,937.32
2018-06-11T02:20:00.621Z,937.32
2018-06-11T02:21:08.691Z,937.33
2018-06-11T02:22:16.792Z,937.31
2018-06-11T02:23:24.839Z,937.31
2018-06-11T02:24:32.883Z,937.29
2018-06-11T02:25:40.954Z,937.31
2018-06-11T02:26:49.013Z,937.29
2018-06-11T02:27:57.140Z,937.34
2018-06-11T02:29:05.132Z,937.30
2018-06-11T02:30:13.345Z,937.31
2018-06-11T02:31:21.285Z,937.29
2018-06-11T02:32:29.350Z,937.30
2018-06-11T02:33:37.537Z,937.33
2018-06-11T02:34:45.493Z,937.28
2018-06-11T02:35:53.568Z,937.28
2018-06-11T02:37:01.634Z,937.31
2018-06-11T02:38:09.699Z,937.29
2018-06-11T02:39:17.812Z,937.27
2018-06-11T02:40:25.835Z,937.33
2018-06-11T02:41:33.896Z,937.35
2018-06-11T02:42:41.982Z,937.39
2018-06-11T02:43:50.034Z,937.37
2018-06-11T02:44:58.221Z,937.38
2018-06-11T02:46:06.289Z,937.45
2018-06-11T02:47:14.243Z,937.46
2018-06-11T02:48:22.305Z,937.47
2018-06-11T02:49:30.371Z,937.42
2018-06-11T02:50:38.471Z,937.39
2018-06-11T02:51:46.521Z,937.38
2018-06-11T02:52:54.558Z,937.34
2018-06-11T02:54:02.653Z,937.29
2018-06-11T02:55:10.713Z,937.30
2018-06-11T02:56:18.890Z,937.32
2018-06-11T02:57:26.835Z,937.31
2018-06-11T02:58:35.107Z,937.33
2018-06-11T02:59:43.190Z,937.32
2018-06-11T03:00:51.267Z,937.34
2018-06-11T03:01:59.449Z,937.32
2018-06-11T03:03:07.391Z,937.33
2018-06-11T03:04:15.436Z,937.29
2018-06-11T03:05:23.566Z,937.31
2018-06-11T03:06:31.592Z,937.29
2018-06-11T03:07:39.713Z,937.29
2018-06-11T03:08:47.727Z,937.32
2018-06-11T03:09:55.796Z,937.33
2018-06-11T03:11:03.857Z,937.32
2018-06-11T03:12:11.979Z,937.36
2018-06-11T03:13:19.991Z,937.33
2018-06-11T03:14:28.060Z,937.30
2018-06-11T03:15:36.149Z,937.29
2018-06-11T03:16:44.193Z,937.29
2018-06-11T03:17:52.290Z,937.27
2018-06-11T03:19:00.317Z,937.28
2018-06-11T03:20:08.390Z,937.25
2018-06-11T03:21:16.460Z,937.29
2018-06-11T03:22:24.616Z,937.26
2018-06-11T03:23:32.595Z,937.27
2018-06-11T03:24:40.658Z,937.32
2018-06-11T03:25:48.722Z,937.30
2018-06-11T03:26:56.787Z,937.35
2018-06-11T03:28:04.873Z,937.35
2018-06-11T03:29:12.914Z,937.32
2018-06-11T03:30:20.982Z,937.33
2018-06-11T03:31:29.195Z,937.33
2018-06-11T03:32:37.174Z,937.31
2018-06-11T03:33:45.204Z,937.31
2018-06-11T03:34:53.259Z,937.29
2018-06-11T03:36:01.319Z,937.28
2018-06-11T03:37:09.374Z,937.31
2018-06-11T03:38:17.456Z,937.29
2018-06-11T03:39:25.619Z,937.27
2018-06-11T03:40:33.606Z,937.25
2018-06-11T03:41:41.660Z,937.19
2018-06-11T03:42:49.712Z,937.18
2018-06-11T03:43:57.798Z,937.17
2018-06-11T03:45:05.901Z,937.14
2018-06-11T03:46:13.936Z,937.12
2018-06-11T03:47:22.099Z,937.12
2018-06-11T03:48:30.074Z,937.07
2018-06-11T03:49:38.133Z,937.11
2018-06-11T03:50:46.308Z,937.09
2018-06-11T03:51:54.276Z,937.06
2018-06-11T03:53:02.345Z,937.07
2018-06-11T03:54:10.406Z,937.05
2018-06-11T03:55:18.468Z,937.07
2018-06-11T03:56:26.588Z,937.08
2018-06-11T03:57:34.595Z,937.04
2018-06-11T03:58:42.681Z,937.10
2018-06-11T03:59:50.740Z,937.06
2018-06-11T04:00:58.811Z,937.03
2018-06-11T04:02:06.930Z,937.06
2018-06-11T04:03:14.917Z,937.03
2018-06-11T04:04:23.024Z,936.99
2018-06-11T04:05:31.072Z,936.96
2018-06-11T04:06:39.130Z,936.95
2018-06-11T04:07:47.273Z,936.96
2018-06-11T04:08:55.262Z,936.98
2018-06-11T04:10:03.355Z,936.95
2018-06-11T04:11:11.482Z,936.97
2018-06-11T04:12:19.536Z,936.97
2018-06-11T04:13:27.552Z,936.99
2018-06-11T04:14:35.610Z,937.02
2018-06-11T04:15:43.696Z,937.00
2018-06-11T04:16:51.751Z,937.05
2018-06-11T04:17:59.928Z,937.05
2018-06-11T04:19:08.417Z,937.07
2018-06-11T04:20:16.141Z,937.09
2018-06-11T04:21:24.063Z,937.07
2018-06-11T04:22:32.082Z,937.09
2018-06-11T04:23:40.261Z,937.11
2018-06-11T04:24:48.217Z,937.09
2018-06-11T04:25:56.279Z,937.08
2018-06-11T04:27:04.359Z,937.08
2018-06-11T04:28:12.459Z,937.08
2018-06-11T04:29:20.540Z,937.01
2018-06-11T04:30:28.561Z,936.97
2018-06-11T04:31:36.623Z,937.05
2018-06-11T04:32:45.276Z,936.97
2018-06-11T04:33:52.871Z,936.97
2018-06-11T04:35:00.883Z,936.99
2018-06-11T04:36:08.896Z,936.97
2018-06-11T04:37:17.460Z,936.97
2018-06-11T04:38:25.027Z,936.97
2018-06-11T04:39:33.151Z,936.97
2018-06-11T04:40:41.261Z,936.98
2018-06-11T04:41:50.279Z,936.93
2018-06-11T04:42:57.303Z,936.93
2018-06-11T04:44:05.342Z,936.91
2018-06-11T04:45:13.463Z,936.91
2018-06-11T04:46:21.622Z,936.89
2018-06-11T04:47:29.559Z,936.90
2018-06-11T04:48:37.634Z,936.89
2018-06-11T04:49:45.758Z,936.88
2018-06-11T04:50:53.761Z,936.86
2018-06-11T04:52:01.946Z,936.86
2018-06-11T04:53:09.906Z,936.87
2018-06-11T04:54:17.972Z,936.89
2018-06-11T04:55:26.675Z,936.92
2018-06-11T04:56:34.106Z,936.89
2018-06-11T04:57:42.680Z,936.89
2018-06-11T04:58:50.249Z,936.89
2018-06-11T04:59:58.314Z,936.86
2018-06-11T05:01:06.372Z,936.88
2018-06-11T05:02:14.481Z,936.84
2018-06-11T05:03:22.526Z,936.88
2018-06-11T05:04:30.590Z,936.92
2018-06-11T05:05:38.766Z,936.95
2018-06-11T05:06:46.793Z,936.92
2018-06-11T05:07:54.893Z,936.91
2018-06-11T05:09:03.369Z,936.96
2018-06-11T05:10:11.022Z,936.96
2018-06-11T05:11:18.985Z,937.00
2018-06-11T05:12:27.072Z,937.04
2018-06-11T05:13:35.159Z,937.05
2018-06-11T05:14:43.208Z,937.02
2018-06-11T05:15:51.268Z,937.05
2018-06-11T05:16:59.337Z,937.04
2018-06-11T05:18:07.552Z,937.02
2018-06-11T05:19:15.571Z,937.03
2018-06-11T05:20:23.541Z,937.03
2018-06-11T05:21:31.671Z,937.10
2018-06-11T05:22:39.666Z,937.12
2018-06-11T05:23:47.754Z,937.14
2018-06-11T05:24:55.921Z,937.18
2018-06-11T05:26:03.899Z,937.20
2018-06-11T05:27:11.941Z,937.17
2018-06-11T05:28:20.015Z,937.14
2018-06-11T05:29:28.102Z,937.13
2018-06-11T05:30:36.286Z,937.13
2018-06-11T05:31:44.225Z,937.11
2018-06-11T05:32:52.345Z,937.08
2018-06-11T05:34:00.371Z,937.07
2018-06-11T05:35:08.438Z,937.07
2018-06-11T05:36:16.566Z,937.05
2018-06-11T05:37:24.616Z,937.06
2018-06-11T05:38:32.647Z,937.09
2018-06-11T05:39:40.719Z,937.08
2018-06-11T05:40:48.829Z,937.10
2018-06-11T05:41:56.970Z,937.09
2018-06-11T05:43:04.905Z,937.06
2018-06-11T05:44:12.993Z,937.08
2018-06-11T05:45:21.072Z,937.07
2018-06-11T05:46:29.144Z,937.09
2018-06-11T05:47:37.269Z,937.14
2018-06-11T05:48:45.255Z,937.13
2018-06-11T05:49:53.342Z,937.09
2018-06-11T05:51:01.420Z,937.12
2018-06-11T05:52:09.603Z,937.10
2018-06-11T05:53:17.560Z,937.08
2018-06-11T05:54:25.628Z,937.08
2018-06-11T05:55:33.687Z,937.09
2018-06-11T05:56:41.764Z,937.14
2018-06-11T05:57:49.941Z,937.18
2018-06-11T05:58:57.907Z,937.14
2018-06-11T06:00:05.972Z,937.21
2018-06-11T06:01:14.042Z,937.22
2018-06-11T06:02:22.123Z,937.23
2018-06-11T06:03:30.242Z,937.28
2018-06-11T06:04:38.261Z,937.26
2018-06-11T06:05:46.318Z,937.27
2018-06-11T06:06:54.391Z,937.26
2018-06-11T06:08:02.592Z,937.19
2018-06-11T06:09:10.655Z,937.16
2018-06-11T06:10:18.598Z,937.18
2018-06-11T06:11:26.676Z,937.17
2018-06-11T06:12:34.725Z,937.20
2018-06-11T06:13:42.819Z,937.25
2018-06-11T06:14:50.937Z,937.28
2018-06-11T06:15:58.966Z,937.28
2018-06-11T06:17:07.038Z,937.28
2018-06-11T06:18:15.080Z,937.32
2018-06-11T06:19:23.170Z,937.33
2018-06-11T06:20:31.359Z,937.33
2018-06-11T06:21:39.317Z,937.37
2018-06-11T06:22:47.378Z,937.39
2018-06-11T06:23:55.569Z,937.41
2018-06-11T06:25:03.797Z,937.44
2018-06-11T06:26:11.714Z,937.44
2018-06-11T06:27:19.659Z,937.45
2018-06-11T06:28:27.740Z,937.45
2018-06-11T06:29:35.820Z,937.44
2018-06-11T06:30:44.175Z,937.46
2018-06-11T06:31:52.311Z,937.48
2018-06-11T06:33:00.025Z,937.49
2018-06-11T06:34:08.140Z,937.50
2018-06-11T06:35:16.173Z,937.54
2018-06-11T06:36:24.232Z,937.59
2018-06-11T06:37:32.349Z,937.55
2018-06-11T06:38:40.380Z,937.59
2018-06-11T06:39:48.568Z,937.54
2018-06-11T06:40:56.565Z,937.58
2018-06-11T06:42:04.948Z,937.51
2018-06-11T06:43:12.705Z,937.53
2018-06-11T06:44:20.762Z,937.48
2018-06-11T06:45:28.898Z,937.50
2018-06-11T06:46:36.900Z,937.47
2018-06-11T06:47:44.976Z,937.47
2018-06-11T06:48:53.012Z,937.47
2018-06-11T06:50:01.129Z,937.46
2018-06-11T06:51:09.194Z,937.44
2018-06-11T06:52:17.357Z,937.46
2018-06-11T06:53:25.300Z,937.50
2018-06-11T06:54:33.364Z,937.50
2018-06-11T06:55:41.606Z,937.52
2018-06-11T06:56:49.509Z,937.54
2018-06-11T06:57:57.715Z,937.54
2018-06-11T06:59:06.026Z,937.55
2018-06-11T07:00:14.118Z,937.52
2018-06-11T07:01:21.986Z,937.56
2018-06-11T07:02:29.877Z,937.56
2018-06-11T07:03:38.290Z,937.57
2018-06-11T07:04:46.261Z,937.55
2018-06-11T07:05:54.092Z,937.58
2018-06-11T07:07:02.776Z,937.54
2018-06-11T07:08:10.568Z,937.56
2018-06-11T07:09:18.422Z,937.55
2018-06-11T07:10:26.412Z,937.52
2018-06-11T07:11:34.557Z,937.53
2018-06-11T07:12:42.546Z,937.49
2018-06-11T07:13:50.608Z,937.52
2018-06-11T07:14:58.720Z,937.47
2018-06-11T07:16:06.733Z,937.47
2018-06-11T07:17:14.791Z,937.51
2018-06-11T07:18:22.891Z,937.47
2018-06-11T07:19:31.202Z,937.48
2018-06-11T07:20:39.141Z,937.47
2018-06-11T07:21:47.120Z,937.43
2018-06-11T07:22:55.176Z,937.41
2018-06-11T07:24:03.275Z,937.39
2018-06-11T07:25:11.329Z,937.36
2018-06-11T07:26:19.955Z,937.38
2018-06-11T07:27:27.501Z,937.39
2018-06-11T07:28:35.530Z,937.39
2018-06-11T07:29:43.628Z,937.45
2018-06-11T07:30:51.669Z,937.47
2018-06-11T07:31:59.852Z,937.49
2018-06-11T07:33:07.845Z,937.51
2018-06-11T07:34:16.513Z,937.51
2018-06-11T07:35:24.474Z,937.43
2018-06-11T07:36:32.048Z,937.45
2018-06-11T07:37:40.128Z,937.48
2018-06-11T07:38:48.166Z,937.48
2018-06-11T07:39:56.257Z,937.53
2018-06-11T07:41:04.337Z,937.56
2018-06-11T07:42:12.523Z,937.65
2018-06-11T07:43:20.488Z,937.68
2018-06-11T07:44:28.579Z,937.65
2018-06-11T07:45:36.640Z,937.81
2018-06-11T07:46:44.978Z,938.74
2018-06-11T07:47:52.812Z,938.90
2018-06-11T07:49:00.828Z,938.47
2018-06-11T07:50:08.927Z,938.83
2018-06-11T07:51:16.988Z,938.83
2018-06-11T07:52:25.134Z,938.90
2018-06-11T07:53:33.124Z,938.97
2018-06-11T07:54:41.203Z,938.91
2018-06-11T07:55:49.276Z,939.34
2018-06-11T07:56:57.357Z,939.51
2018-06-11T07:58:05.554Z,939.83
2018-06-11T07:59:13.511Z,939.14
2018-06-11T08:00:21.585Z,938.72
2018-06-11T08:01:29.727Z,938.55
2018-06-11T08:02:37.725Z,938.26
2018-06-11T08:03:45.941Z,938.30
2018-06-11T08:04:53.898Z,937.96
2018-06-11T08:06:01.993Z,937.76
2018-06-11T08:07:10.056Z,937.70
2018-06-11T08:08:18.138Z,937.68
2018-06-11T08:09:26.326Z,937.58
2018-06-11T08:10:34.292Z,937.58
2018-06-11T08:11:42.364Z,937.61
2018-06-11T08:12:50.444Z,937.62
2018-06-11T08:13:58.641Z,937.62
2018-06-11T08:15:06.656Z,937.75
2018-06-11T08:16:14.655Z,937.60
2018-06-11T08:17:22.761Z,937.53
2018-06-11T08:18:30.846Z,937.49
2018-06-11T08:19:38.921Z,937.48
2018-06-11T08:20:47.119Z,937.63
2018-06-11T08:21:55.044Z,937.70
2018-06-11T08:23:03.172Z,937.94
2018-06-11T08:24:11.227Z,937.77
2018-06-11T08:25:19.301Z,937.82
2018-06-11T08:26:27.490Z,937.76
2018-06-11T08:27:35.458Z,937.63
2018-06-11T08:28:43.538Z,937.65
2018-06-11T08:29:51.727Z,937.56
2018-06-11T08:30:59.687Z,937.62
2018-06-11T08:32:07.837Z,937.62
2018-06-11T08:33:15.833Z,937.54
2018-06-11T08:34:23.905Z,937.57
2018-06-11T08:35:32.006Z,937.69
2018-06-11T08:36:40.078Z,937.64
2018-06-11T08:37:48.255Z,937.64
2018-06-11T08:38:56.214Z,937.78
2018-06-11T08:40:04.306Z,937.79
2018-06-11T08:41:12.376Z,937.65
2018-06-11T08:42:20.463Z,937.68
2018-06-11T08:43:28.636Z,937.70
2018-06-11T08:44:36.607Z,937.63
2018-06-11T08:45:44.762Z,937.61
2018-06-11T08:46:52.755Z,937.69
2018-06-11T08:48:00.822Z,938.03
2018-06-11T08:49:09.149Z,937.75
2018-06-11T08:50:16.986Z,937.67
2018-06-11T08:51:25.054Z,937.56
2018-06-11T08:52:33.141Z,937.65
2018-06-11T08:53:41.207Z,937.46
2018-06-11T08:54:49.398Z,937.44
2018-06-11T08:55:57.371Z,937.45
2018-06-11T08:57:05.421Z,937.35
2018-06-11T08:58:13.514Z,937.29
2018-06-11T08:59:21.599Z,937.40
2018-06-11T09:00:29.779Z,937.48
2018-06-11T09:01:37.853Z,937.35
2018-06-11T09:02:45.823Z,937.31
2018-06-11T09:03:53.896Z,937.32
2018-06-11T09:05:01.979Z,937.27
2018-06-11T09:06:10.154Z,937.31
2018-06-11T09:07:18.130Z,937.33
2018-06-11T09:08:26.199Z,937.41
2018-06-11T09:09:34.278Z,937.60
2018-06-11T09:10:42.351Z,937.44
2018-06-11T09:11:50.549Z,937.41
2018-06-11T09:12:58.545Z,937.27
2018-06-11T09:14:06.586Z,937.24
2018-06-11T09:15:14.632Z,937.24
2018-06-11T09:16:22.727Z,937.35
2018-06-11T09:17:30.860Z,937.38
2018-06-11T09:18:38.890Z,937.39
2018-06-11T09:19:46.952Z,937.42
2018-06-11T09:20:55.004Z,937.45
2018-06-11T09:22:03.161Z,937.46
2018-06-11T09:23:11.193Z,937.38
2018-06-11T09:24:19.257Z,937.30
2018-06-11T09:25:27.357Z,937.27
2018-06-11T09:26:35.406Z,937.29
2018-06-11T09:27:43.592Z,937.35
2018-06-11T09:28:51.563Z,937.39
2018-06-11T09:29:59.652Z,937.39
2018-06-11T09:31:07.750Z,937.37
2018-06-11T09:32:15.835Z,937.36
2018-06-11T09:33:23.986Z,937.29
2018-06-11T09:34:31.934Z,937.27
2018-06-11T09:35:40.022Z,937.28
2018-06-11T09:36:48.081Z,937.23
2018-06-11T09:37:56.166Z,937.24
2018-06-11T09:39:04.361Z,937.25
2018-06-11T09:40:12.332Z,937.24
2018-06-11T09:41:20.401Z,937.20
2018-06-11T09:42:28.462Z,937.22
2018-06-11T09:43:36.555Z,937.18
2018-06-11T09:44:44.719Z,937.19
2018-06-11T09:45:52.692Z,937.17
2018-06-11T09:47:00.773Z,937.16
2018-06-11T09:48:08.898Z,937.17
2018-06-11T09:49:16.943Z,937.15
2018-06-11T09:50:25.090Z,937.15
2018-06-11T09:51:33.078Z,937.16
2018-06-11T09:52:41.144Z,937.14
2018-06-11T09:53:49.225Z,937.16
2018-06-11T09:54:57.304Z,937.16
2018-06-11T09:56:05.476Z,937.15
2018-06-11T09:57:13.431Z,937.14
2018-06-11T09:58:21.510Z,937.20
2018-06-11T09:59:29.588Z,937.22
2018-06-11T10:00:37.661Z,937.21
2018-06-11T10:01:45.862Z,937.18
2018-06-11T10:02:53.861Z,937.15
2018-06-11T10:04:01.890Z,937.17
2018-06-11T10:05:10.013Z,937.13
2018-06-11T10:06:18.052Z,937.12
2018-06-11T10:07:26.160Z,937.11
2018-06-11T10:08:34.181Z,937.14
2018-06-11T10:09:42.264Z,937.13
2018-06-11T10:10:50.341Z,937.13
2018-06-11T10:11:58.420Z,937.13
2018-06-11T10:13:06.478Z,937.16
2018-06-11T10:14:14.541Z,937.19
2018-06-11T10:15:22.638Z,937.24
2018-06-11T10:16:30.701Z,937.16
2018-06-11T10:17:38.894Z,937.13
2018-06-11T10:18:46.864Z,937.11
2018-06-11T10:19:54.921Z,937.12
2018-06-11T10:21:03.028Z,937.16
2018-06-11T10:22:11.190Z,937.16
2018-06-11T10:23:19.146Z,937.19
2018-06-11T10:24:27.236Z,937.22
2018-06-11T10:25:35.278Z,937.18
2018-06-11T10:26:43.370Z,937.18
2018-06-11T10:27:51.560Z,937.13
2018-06-11T10:28:59.512Z,937.14
2018-06-11T10:30:07.599Z,937.13
2018-06-11T10:31:15.672Z,937.13
2018-06-11T10:32:23.772Z,937.14
2018-06-11T10:33:32.041Z,937.15
2018-06-11T10:34:39.901Z,937.19
2018-06-11T10:35:47.961Z,937.17
2018-06-11T10:36:56.035Z,937.17
2018-06-11T10:38:04.115Z,937.08
2018-06-11T10:39:12.324Z,937.11
2018-06-11T10:40:20.260Z,937.06
2018-06-11T10:41:28.331Z,937.07
2018-06-11T10:42:36.415Z,937.11
2018-06-11T10:43:44.478Z,937.10
2018-06-11T10:44:52.678Z,937.13
2018-06-11T10:46:00.646Z,937.13
2018-06-11T10:47:08.706Z,937.12
2018-06-11T10:48:16.784Z,937.14
2018-06-11T10:49:24.880Z,937.11
2018-06-11T10:50:33.054Z,937.07
2018-06-11T10:51:41.028Z,937.06
2018-06-11T10:52:49.086Z,937.09
2018-06-11T10:53:57.149Z,937.04
2018-06-11T10:55:05.215Z,937.13
2018-06-11T10:56:13.420Z,937.14
2018-06-11T10:57:21.393Z,937.09
2018-06-11T10:58:29.459Z,937.11
2018-06-11T10:59:37.529Z,937.08
2018-06-11T11:00:45.589Z,937.05
2018-06-11T11:01:53.796Z,937.05
2018-06-11T11:03:01.757Z,937.04
2018-06-11T11:04:09.832Z,937.03
2018-06-11T11:05:18.011Z,936.99
2018-06-11T11:06:25.981Z,936.98
2018-06-11T11:07:34.098Z,936.94
2018-06-11T11:08:42.153Z,936.92
2018-06-11T11:09:50.208Z,936.89
2018-06-11T11:10:58.288Z,936.91
2018-06-11T11:12:06.487Z,936.87
2018-06-11T11:13:14.474Z,936.88
2018-06-11T11:14:22.560Z,936.86
2018-06-11T11:15:30.587Z,936.86
2018-06-11T11:16:38.659Z,936.84
2018-06-11T11:17:46.767Z,936.86
2018-06-11T11:18:54.774Z,936.78
2018-06-11T11:20:02.886Z,936.76
2018-06-11T11:21:11.061Z,936.76
2018-06-11T11:22:19.160Z,936.71
2018-06-11T11:23:27.120Z,936.65
2018-06-11T11:24:35.161Z,936.64
2018-06-11T11:25:43.261Z,936.63
2018-06-11T11:26:51.336Z,936.61
2018-06-11T11:27:59.529Z,936.59
2018-06-11T11:29:07.481Z,936.64
2018-06-11T11:30:15.547Z,936.65
2018-06-11T11:31:23.629Z,936.71
2018-06-11T11:32:31.705Z,936.68
2018-06-11T11:33:39.896Z,936.75
2018-06-11T11:34:47.867Z,936.80
2018-06-11T11:35:55.932Z,936.86
2018-06-11T11:37:04.131Z,936.91
2018-06-11T11:38:12.093Z,936.99
2018-06-11T11:39:20.267Z,936.96
2018-06-11T11:40:28.225Z,936.96
2018-06-11T11:41:36.304Z,936.89
2018-06-11T11:42:44.372Z,936.81
2018-06-11T11:43:52.448Z,936.73
2018-06-11T11:45:00.639Z,936.60
2018-06-11T11:46:08.596Z,936.50
2018-06-11T11:47:16.665Z,936.41
2018-06-11T11:48:24.718Z,936.41
2018-06-11T11:49:32.833Z,936.43
2018-06-11T11:50:41.001Z,936.49
2018-06-11T11:51:48.970Z,936.55
2018-06-11T11:52:57.085Z,936.59
2018-06-11T11:54:05.122Z,936.55
2018-06-11T11:55:13.185Z,936.55
2018-06-11T11:56:21.373Z,936.53
2018-06-11T11:57:29.337Z,936.48
2018-06-11T11:58:37.403Z,936.40
2018-06-11T11:59:45.487Z,936.41
2018-06-11T12:00:53.565Z,936.40
2018-06-11T12:02:01.749Z,936.32
2018-06-11T12:03:09.711Z,936.28
2018-06-11T12:04:17.784Z,936.23
2018-06-11T12:05:25.863Z,936.17
2018-06-11T12:06:33.929Z,936.14
2018-06-11T12:07:42.123Z,936.08
2018-06-11T12:08:50.083Z,936.09
2018-06-11T12:09:58.146Z,936.07
2018-06-11T12:11:06.225Z,936.05
2018-06-11T12:12:14.406Z,936.03
2018-06-11T12:13:22.382Z,935.99
2018-06-11T12:14:30.453Z,936.03
2018-06-11T12:15:38.522Z,935.97
2018-06-11T12:16:46.596Z,935.92
2018-06-11T12:17:54.694Z,935.93
2018-06-11T12:19:02.780Z,935.95
2018-06-11T12:20:10.820Z,936.03
2018-06-11T12:21:18.888Z,936.02
2018-06-11T12:22:27.083Z,936.11
2018-06-11T12:23:35.021Z,936.18
2018-06-11T12:24:43.112Z,936.23
2018-06-11T12:25:51.181Z,936.28
2018-06-11T12:26:59.253Z,936.29
2018-06-11T12:28:07.468Z,936.33
2018-06-11T12:29:15.408Z,936.32
2018-06-11T12:30:23.484Z,936.27
2018-06-11T12:31:31.550Z,936.27
2018-06-11T12:32:39.625Z,936.30
2018-06-11T12:33:47.813Z,936.28
2018-06-11T12:34:55.783Z,936.21
2018-06-11T12:36:03.860Z,936.24
2018-06-11T12:37:11.935Z,936.19
2018-06-11T12:38:20.116Z,936.16
2018-06-11T12:39:28.127Z,936.14
2018-06-11T12:40:36.150Z,936.10
2018-06-11T12:41:44.222Z,936.11
2018-06-11T12:42:52.300Z,936.14
2018-06-11T12:44:00.387Z,936.13
2018-06-11T12:45:08.561Z,936.12
2018-06-11T12:46:16.527Z,936.10
2018-06-11T12:47:24.585Z,936.00
2018-06-11T12:48:32.674Z,935.95
2018-06-11T12:49:40.753Z,935.79
2018-06-11T12:50:48.925Z,935.72
2018-06-11T12:51:56.889Z,935.68
2018-06-11T12:53:04.944Z,935.83
2018-06-11T12:54:13.151Z,935.99
2018-06-11T12:55:21.113Z,936.00
2018-06-11T12:56:29.342Z,936.01
2018-06-11T12:57:37.263Z,935.90
2018-06-11T12:58:45.321Z,935.85
2018-06-11T12:59:53.412Z,935.80
2018-06-11T13:01:01.477Z,935.80
2018-06-11T13:02:09.602Z,935.79
2018-06-11T13:03:17.623Z,935.79
2018-06-11T13:04:25.703Z,935.79
2018-06-11T13:05:33.784Z,935.75
2018-06-11T13:06:41.853Z,935.77
2018-06-11T13:07:49.974Z,935.79
2018-06-11T13:08:58.009Z,935.78
2018-06-11T13:10:06.215Z,935.76
2018-06-11T13:11:14.160Z,935.78
2018-06-11T13:12:22.334Z,935.81
2018-06-11T13:13:30.304Z,935.80
2018-06-11T13:14:38.363Z,935.84
2018-06-11T13:15:46.446Z,935.80
2018-06-11T13:16:54.506Z,935.82
2018-06-11T13:18:02.700Z,935.79
2018-06-11T13:19:10.665Z,935.82
2018-06-11T13:20:20.678Z,935.83
2018-06-11T13:21:26.809Z,935.81
2018-06-11T13:22:34.872Z,935.76
2018-06-11T13:23:43.092Z,935.76
2018-06-11T13:24:51.046Z,935.76
2018-06-11T13:25:59.235Z,935.75
2018-06-11T13:27:07.186Z,935.76
2018-06-11T13:28:15.251Z,935.78
2018-06-11T13:29:23.458Z,935.73
2018-06-11T13:30:31.459Z,935.69
2018-06-11T13:31:39.488Z,935.69
2018-06-11T13:32:47.573Z,935.67
2018-06-11T13:33:55.646Z,935.71
2018-06-11T13:35:03.832Z,935.75
2018-06-11T13:36:11.781Z,935.74
2018-06-11T13:37:19.874Z,935.72
2018-06-11T13:38:27.947Z,935.70
2018-06-11T13:39:36.014Z,935.70
2018-06-11T13:40:44.200Z,935.76
2018-06-11T13:41:52.282Z,935.79
2018-06-11T13:43:00.221Z,935.81
2018-06-11T13:44:08.314Z,935.84
2018-06-11T13:45:16.384Z,935.90
2018-06-11T13:46:24.557Z,935.90
2018-06-11T13:47:32.518Z,935.95
2018-06-11T13:48:40.593Z,935.98
2018-06-11T13:49:48.672Z,935.97
2018-06-11T13:50:56.751Z,935.95
2018-06-11T13:52:04.854Z,936.00
2018-06-11T13:53:12.934Z,935.96
2018-06-11T13:54:20.976Z,935.92
2018-06-11T13:55:29.035Z,935.88
2018-06-11T13:56:37.114Z,935.81
2018-06-11T13:57:45.214Z,935.82
2018-06-11T13:58:53.260Z,935.76
2018-06-11T14:00:01.331Z,935.77
2018-06-11T14:01:09.403Z,935.72
2018-06-11T14:02:17.475Z,935.65
2018-06-11T14:03:25.688Z,935.67
2018-06-11T14:04:33.636Z,935.61
2018-06-11T14:05:41.708Z,935.58
2018-06-11T14:06:49.779Z,935.55
2018-06-11T14:09:09.059Z,935.50
2018-06-11T14:10:17.026Z,935.51